Time;durP1;ratioP1;P1;durP2;ratioP2;P2;SDS_P1;SDS_P2;PMS_P1;PMS_P2;Temp;Humidity;BMP_temperature;BMP_pressure;BME280_temperature;BME280_humidity;BME280_pressure;Samples;Min_cycle;Max_cycle;Signal;HPM_P1;HPM_P2
2023/10/06 00:00:44;;;;;;;9.10;4.63;;;;;;;19.16;68.17;101401.72;5065386;28;20186;-58
2023/10/06 00:03:14;;;;;;;8.33;5.13;;;;;;;19.15;68.04;101406.59;5068664;28;20436;-58
2023/10/06 00:05:44;;;;;;;7.40;4.00;;;;;;;19.15;68.16;101408.59;5068731;28;20475;-58
2023/10/06 00:08:11;;;;;;;10.30;5.43;;;;;;;19.14;68.19;101407.78;5065303;28;20531;-58
2023/10/06 00:10:44;;;;;;;8.30;4.50;;;;;;;19.14;68.46;101401.22;5059499;28;21286;-59
2023/10/06 00:13:19;;;;;;;13.40;5.50;;;;;;;19.13;68.14;101408.13;5046390;28;20421;-58
2023/10/06 00:15:45;;;;;;;10.20;5.00;;;;;;;19.13;68.28;101400.41;5048114;28;20476;-58
2023/10/06 00:18:16;;;;;;;9.20;5.33;;;;;;;19.13;68.13;101417.56;5049551;28;20594;-58
2023/10/06 00:20:48;;;;;;;8.53;4.43;;;;;;;19.13;68.18;101411.00;5050106;28;21237;-58
2023/10/06 00:23:21;;;;;;;12.70;4.90;;;;;;;19.12;68.03;101415.88;5047618;28;20460;-59
2023/10/06 00:25:54;;;;;;;7.70;3.93;;;;;;;19.12;68.10;101417.94;5049756;28;20474;-58
2023/10/06 00:28:26;;;;;;;9.20;4.53;;;;;;;19.11;68.24;101408.50;5047342;28;20436;-58
2023/10/06 00:30:58;;;;;;;8.60;5.10;;;;;;;19.12;68.17;101415.06;5047924;28;20513;-58
2023/10/06 00:33:27;;;;;;;10.47;5.50;;;;;;;19.11;67.96;101414.22;5048036;28;20485;-59
2023/10/06 00:35:52;;;;;;;8.07;4.50;;;;;;;19.11;68.14;101417.06;5065128;28;20441;-58
2023/10/06 00:38:18;;;;;;;9.03;4.83;;;;;;;19.10;68.08;101412.56;5066784;28;20837;-58
2023/10/06 00:40:55;;;;;;;8.63;4.70;;;;;;;19.10;68.01;101418.28;5057476;28;20191;-58
2023/10/06 00:43:39;;;;;;;7.83;4.20;;;;;;;19.10;68.27;101408.84;5047776;28;20179;-58
2023/10/06 00:46:08;;;;;;;9.20;4.60;;;;;;;19.09;68.09;101413.75;5051837;28;20503;-59
2023/10/06 00:48:40;;;;;;;6.80;4.13;;;;;;;19.10;67.93;101412.56;5067632;28;20758;-58
2023/10/06 00:51:10;;;;;;;9.13;5.13;;;;;;;19.09;68.01;101415.78;5067673;28;20778;-59
2023/10/06 00:53:35;;;;;;;8.60;4.57;;;;;;;19.09;68.03;101398.59;5063483;28;20433;-58
2023/10/06 00:56:10;;;;;;;7.90;4.37;;;;;;;19.08;67.98;101403.50;5051512;28;20421;-59
2023/10/06 00:58:41;;;;;;;9.43;4.07;;;;;;;19.08;67.80;101403.50;5055987;28;20194;-59
2023/10/06 01:01:12;;;;;;;7.50;4.43;;;;;;;19.08;68.10;101399.78;5062412;28;20976;-59
2023/10/06 01:03:38;;;;;;;9.00;4.67;;;;;;;19.07;67.90;101393.22;5047807;28;20444;-59
2023/10/06 01:06:10;;;;;;;7.70;4.30;;;;;;;19.06;68.00;101382.97;5029616;28;20466;-59
2023/10/06 01:08:36;;;;;;;8.10;4.60;;;;;;;19.07;67.96;101378.91;5051970;28;20457;-59
2023/10/06 01:11:17;;;;;;;9.17;4.63;;;;;;;19.06;67.98;101377.25;5053657;28;20925;-59
2023/10/06 01:13:56;;;;;;;10.17;4.80;;;;;;;19.06;68.13;101370.72;5066121;28;20274;-58
2023/10/06 01:16:34;;;;;;;8.60;4.20;;;;;;;19.07;68.01;101373.19;5063669;28;20472;-59
2023/10/06 01:21:53;;;;;;;8.70;4.23;;;;;;;19.05;67.87;101378.44;5066023;28;20512;-59
2023/10/06 01:24:25;;;;;;;9.20;4.20;;;;;;;19.04;67.99;101376.78;5066186;28;20425;-59
2023/10/06 01:26:59;;;;;;;11.80;4.77;;;;;;;19.05;67.94;101369.84;5056788;28;20884;-59
2023/10/06 01:29:29;;;;;;;11.00;4.37;;;;;;;19.05;67.96;101363.28;5047718;28;20788;-58
2023/10/06 01:31:55;;;;;;;9.00;4.70;;;;;;;19.05;67.95;101371.88;5063634;28;20780;-58
2023/10/06 01:34:21;;;;;;;8.40;4.47;;;;;;;19.05;67.76;101367.00;5048819;28;20450;-58
2023/10/06 01:36:52;;;;;;;6.80;3.83;;;;;;;19.03;67.87;101366.53;5046792;28;20601;-59
2023/10/06 01:39:22;;;;;;;6.40;3.73;;;;;;;19.04;67.99;101368.19;5048664;28;20274;-59
2023/10/06 01:41:48;;;;;;;7.80;3.63;;;;;;;19.03;67.94;101375.13;5045359;28;20437;-58
2023/10/06 01:44:15;;;;;;;8.70;4.10;;;;;;;19.04;67.95;101382.50;5049068;28;20438;-58
2023/10/06 01:46:41;;;;;;;7.10;4.00;;;;;;;19.04;68.05;101382.50;5046579;28;20236;-58
2023/10/06 01:49:14;;;;;;;7.23;4.07;;;;;;;19.03;67.93;101375.13;5046555;28;20414;-59
2023/10/06 01:51:40;;;;;;;7.67;4.23;;;;;;;19.03;67.97;101382.84;5047403;28;20180;-58
2023/10/06 01:54:12;;;;;;;6.17;3.80;;;;;;;19.02;67.92;101382.00;5049710;28;20998;-58
2023/10/06 01:56:42;;;;;;;5.90;3.67;;;;;;;19.02;67.94;101382.00;5047311;28;20206;-58
2023/10/06 01:59:09;;;;;;;8.40;3.90;;;;;;;19.01;67.92;101366.03;5050229;28;20536;-58
2023/10/06 02:01:34;;;;;;;8.33;4.30;;;;;;;19.01;67.91;101374.63;5052403;28;20457;-59
2023/10/06 02:04:00;;;;;;;6.33;3.83;;;;;;;19.01;68.01;101373.81;5045409;28;20458;-59
2023/10/06 02:06:26;;;;;;;8.37;4.43;;;;;;;19.02;67.82;101384.06;5048480;28;20219;-59
2023/10/06 02:08:54;;;;;;;6.93;3.73;;;;;;;19.01;67.84;101380.34;5042868;28;20411;-59
2023/10/06 02:11:28;;;;;;;7.53;4.17;;;;;;;19.01;67.83;101373.81;5046650;28;20442;-59
2023/10/06 02:13:54;;;;;;;5.67;3.83;;;;;;;19.01;67.77;101370.94;5043859;28;20444;-58
2023/10/06 02:16:26;;;;;;;7.17;3.40;;;;;;;19.00;67.87;101367.25;5044627;28;20416;-59
2023/10/06 02:18:53;;;;;;;11.07;4.23;;;;;;;18.99;67.76;101371.31;5062559;28;20641;-59
2023/10/06 02:21:24;;;;;;;5.93;3.20;;;;;;;18.99;67.92;101374.16;5066473;28;20413;-58
2023/10/06 02:23:51;;;;;;;5.97;3.53;;;;;;;18.98;67.79;101371.66;5070175;28;20912;-58
2023/10/06 02:26:17;;;;;;;6.60;3.93;;;;;;;18.99;67.73;101365.56;5065464;28;20495;-58
2023/10/06 02:28:49;;;;;;;8.03;3.90;;;;;;;18.99;67.85;101361.88;5050874;28;20761;-58
2023/10/06 02:31:15;;;;;;;8.43;4.47;;;;;;;18.97;67.85;101359.34;5050920;28;20254;-59
2023/10/06 02:33:42;;;;;;;6.97;3.87;;;;;;;18.99;67.94;101362.72;5052627;28;20417;-58
2023/10/06 02:36:17;;;;;;;6.83;4.30;;;;;;;18.97;67.51;101362.22;5050500;28;20740;-58
2023/10/06 02:38:46;;;;;;;6.23;3.37;;;;;;;18.97;67.57;101356.50;5050191;28;20448;-58
2023/10/06 02:41:25;;;;;;;5.97;3.60;;;;;;;18.97;67.71;101350.78;5051108;28;20468;-59
2023/10/06 02:43:51;;;;;;;5.60;3.30;;;;;;;18.97;67.71;101355.69;5068280;28;20589;-58
2023/10/06 02:46:22;;;;;;;6.87;3.40;;;;;;;18.96;67.77;101360.56;5069300;28;21182;-58
2023/10/06 02:48:49;;;;;;;6.70;3.90;;;;;;;18.97;67.84;101353.63;5069313;28;20508;-58
2023/10/06 02:51:29;;;;;;;6.67;3.40;;;;;;;18.95;67.74;101356.03;5069854;28;20902;-59
2023/10/06 02:54:09;;;;;;;6.93;3.80;;;;;;;18.96;67.67;101349.09;5070110;28;20555;-58
2023/10/06 02:56:34;;;;;;;7.90;3.80;;;;;;;18.95;67.71;101353.16;5052754;28;20446;-58
2023/10/06 02:59:08;;;;;;;6.57;3.30;;;;;;;18.96;67.70;101354.00;5049552;28;20419;-59
2023/10/06 03:01:38;;;;;;;5.77;3.30;;;;;;;18.94;67.44;101354.38;5051598;28;20223;-58
2023/10/06 03:04:07;;;;;;;6.13;3.50;;;;;;;18.94;67.60;101357.22;5049176;28;20523;-59
2023/10/06 03:06:32;;;;;;;8.50;4.17;;;;;;;18.94;67.70;101357.22;5048334;28;20422;-59
2023/10/06 03:09:05;;;;;;;7.20;3.90;;;;;;;18.94;67.74;101360.09;5048782;28;20503;-59
2023/10/06 03:11:31;;;;;;;6.33;3.37;;;;;;;18.95;67.58;101358.03;5054045;28;20241;-58
2023/10/06 03:13:58;;;;;;;5.50;3.27;;;;;;;18.94;67.87;101362.97;5048574;28;20442;-59
2023/10/06 03:16:25;;;;;;;6.47;3.60;;;;;;;18.93;67.48;101358.44;5048462;28;20160;-58
2023/10/06 03:18:52;;;;;;;5.80;3.30;;;;;;;18.93;67.42;101355.56;5049562;28;20814;-58
2023/10/06 03:21:18;;;;;;;6.83;3.63;;;;;;;18.93;67.73;101355.56;5049933;28;20793;-59
2023/10/06 03:23:45;;;;;;;7.60;3.43;;;;;;;18.93;67.63;101355.56;5061932;28;20425;-59
2023/10/06 03:26:53;;;;;;;5.53;3.30;;;;;;;18.92;67.68;101362.47;5068179;28;20222;-58
2023/10/06 03:29:02;;;;;;;5.77;3.50;;;;;;;18.92;67.57;101359.59;5048596;28;20774;-59
2023/10/06 03:31:44;;;;;;;6.10;3.43;;;;;;;18.92;67.63;101359.59;5047215;28;20418;-58
2023/10/06 03:34:15;;;;;;;5.97;3.50;;;;;;;18.92;67.57;101361.63;5059800;28;21050;-59
2023/10/06 03:36:46;;;;;;;6.83;3.00;;;;;;;18.91;67.54;101369.38;5067545;28;20492;-58
2023/10/06 03:39:12;;;;;;;6.33;3.30;;;;;;;18.92;67.54;101384.53;5067192;28;20421;-59
2023/10/06 03:41:41;;;;;;;6.73;3.97;;;;;;;18.91;67.60;101380.00;5069332;28;20425;-58
2023/10/06 03:44:11;;;;;;;8.20;3.77;;;;;;;18.91;67.61;101372.25;5066162;28;20782;-59
2023/10/06 03:46:38;;;;;;;5.40;2.90;;;;;;;18.91;67.45;101371.44;5063651;28;20464;-58
2023/10/06 03:49:04;;;;;;;6.60;3.50;;;;;;;18.90;67.71;101373.44;5049088;28;20500;-58
2023/10/06 03:51:33;;;;;;;4.70;2.93;;;;;;;18.90;67.70;101369.72;5031372;28;20437;-58
2023/10/06 03:53:59;;;;;;;4.67;2.90;;;;;;;18.89;67.73;101359.47;5048761;28;20433;-58
2023/10/06 03:56:25;;;;;;;6.53;3.67;;;;;;;18.90;67.70;101359.13;5057477;28;20438;-58
2023/10/06 03:58:50;;;;;;;6.30;3.43;;;;;;;18.88;67.71;101361.53;5048292;28;20172;-58
2023/10/06 04:01:31;;;;;;;5.87;3.23;;;;;;;18.89;67.68;101365.22;5050931;28;20260;-58
2023/10/06 04:03:59;;;;;;;5.43;3.40;;;;;;;18.89;67.71;101368.06;5050186;28;20183;-59
2023/10/06 04:06:28;;;;;;;7.70;3.60;;;;;;;18.88;67.68;101364.38;5047492;28;20830;-58
2023/10/06 04:08:56;;;;;;;7.13;3.23;;;;;;;18.87;67.67;101362.69;5047841;28;20406;-59
2023/10/06 04:11:22;;;;;;;5.20;3.10;;;;;;;18.88;67.52;101357.81;5051728;28;21277;-58
2023/10/06 04:13:48;;;;;;;5.13;3.07;;;;;;;18.88;67.59;101352.09;5068063;28;20495;-58
2023/10/06 04:16:14;;;;;;;5.53;3.30;;;;;;;18.87;68.00;101348.38;5067994;28;20175;-58
2023/10/06 04:18:39;;;;;;;4.30;2.60;;;;;;;18.86;67.46;101346.72;5050390;28;20843;-58
2023/10/06 04:21:11;;;;;;;5.10;3.20;;;;;;;18.88;67.58;101346.38;5048229;28;20241;-58
2023/10/06 04:23:41;;;;;;;5.80;3.17;;;;;;;18.86;67.70;101345.91;5049562;28;20175;-58
2023/10/06 04:26:07;;;;;;;6.20;3.27;;;;;;;18.86;67.62;101343.88;5048293;28;20460;-58
2023/10/06 04:28:33;;;;;;;6.07;3.23;;;;;;;18.85;67.68;101350.78;5048579;28;20480;-58
2023/10/06 04:31:00;;;;;;;4.73;2.90;;;;;;;18.86;67.48;101349.59;5047701;28;20434;-58
2023/10/06 04:33:28;;;;;;;7.07;3.20;;;;;;;18.87;67.67;101353.28;5046548;28;20172;-59
2023/10/06 04:35:59;;;;;;;4.60;2.77;;;;;;;18.85;67.59;101347.94;5059433;28;20508;-58
2023/10/06 04:38:29;;;;;;;5.87;3.30;;;;;;;18.85;67.78;101353.66;5061944;28;20443;-58
2023/10/06 04:40:56;;;;;;;4.97;2.60;;;;;;;18.85;67.63;101365.09;5056934;28;20425;-59
2023/10/06 04:43:22;;;;;;;4.80;2.90;;;;;;;18.86;67.70;101355.31;5067937;28;20424;-59
2023/10/06 04:45:48;;;;;;;6.10;3.00;;;;;;;18.86;67.73;101360.22;5067690;28;20809;-59
2023/10/06 04:48:15;;;;;;;6.20;2.73;;;;;;;18.84;67.46;101354.84;5057145;28;20195;-58
2023/10/06 04:50:42;;;;;;;4.97;3.00;;;;;;;18.84;67.71;101356.84;5047261;28;20635;-59
2023/10/06 04:53:08;;;;;;;5.67;3.40;;;;;;;18.85;67.59;101369.97;5049910;28;20806;-59
2023/10/06 04:55:39;;;;;;;4.73;2.83;;;;;;;18.83;67.71;101356.03;5057210;28;20475;-58
2023/10/06 04:58:07;;;;;;;5.23;2.80;;;;;;;18.84;67.56;101362.59;5063834;28;20179;-58
2023/10/06 05:00:33;;;;;;;7.50;3.20;;;;;;;18.83;67.85;101361.78;5063323;28;20460;-59
2023/10/06 05:02:59;;;;;;;6.20;3.10;;;;;;;18.82;67.61;101362.94;5045652;28;20434;-59
2023/10/06 05:05:26;;;;;;;5.67;3.30;;;;;;;18.82;67.50;101357.22;5053367;28;20210;-58
2023/10/06 05:07:53;;;;;;;6.43;3.27;;;;;;;18.81;67.57;101364.13;5063362;28;20674;-59
2023/10/06 05:10:21;;;;;;;5.27;2.80;;;;;;;18.82;67.73;101360.06;5067003;28;20777;-58
2023/10/06 05:12:49;;;;;;;6.20;3.10;;;;;;;18.81;67.55;101352.69;5050188;28;20502;-58
2023/10/06 05:15:23;;;;;;;5.40;3.60;;;;;;;18.82;67.79;101353.53;5066667;28;20436;-58
2023/10/06 05:17:55;;;;;;;5.13;2.90;;;;;;;18.81;67.51;101341.25;5067204;28;20792;-59
2023/10/06 05:20:22;;;;;;;5.13;2.87;;;;;;;18.82;67.50;101347.81;5051896;28;20442;-58
2023/10/06 05:22:48;;;;;;;5.27;3.23;;;;;;;18.81;67.68;101346.16;5048047;28;20885;-58
2023/10/06 05:25:15;;;;;;;5.43;3.03;;;;;;;18.81;67.54;101358.41;5058480;28;20798;-57
2023/10/06 05:27:42;;;;;;;4.40;2.93;;;;;;;18.82;67.59;101359.25;5058230;28;20953;-59
2023/10/06 05:30:08;;;;;;;5.40;2.90;;;;;;;18.80;67.76;101362.47;5051430;28;20842;-57
2023/10/06 05:32:35;;;;;;;6.27;3.40;;;;;;;18.79;67.57;101360.81;5052463;28;20455;-58
2023/10/06 05:35:01;;;;;;;6.60;3.40;;;;;;;18.80;67.83;101373.91;5048222;28;20898;-59
2023/10/06 05:37:26;;;;;;;5.00;3.00;;;;;;;18.80;67.66;101365.31;5056400;28;20430;-58
2023/10/06 05:39:52;;;;;;;6.03;3.60;;;;;;;18.80;67.70;101367.34;5060979;28;20548;-59
2023/10/06 05:42:17;;;;;;;4.47;2.83;;;;;;;18.80;67.48;101373.06;5056280;28;20635;-59
2023/10/06 05:44:42;;;;;;;7.73;3.47;;;;;;;18.79;67.77;101375.09;5052746;28;20645;-58
2023/10/06 05:47:08;;;;;;;4.53;2.70;;;;;;;18.79;67.54;101375.09;5045953;28;20548;-58
2023/10/06 05:49:47;;;;;;;4.17;2.60;;;;;;;18.78;67.67;101370.59;5047147;28;20830;-58
2023/10/06 05:52:13;;;;;;;5.53;3.00;;;;;;;18.96;68.45;101374.88;5043471;28;20191;-59
2023/10/06 05:54:38;;;;;;;6.47;3.77;;;;;;;19.25;68.00;101374.66;5057907;28;21250;-59
2023/10/06 05:57:04;;;;;;;13.80;4.33;;;;;;;19.71;68.93;101376.91;5051148;28;20894;-59
2023/10/06 05:59:32;;;;;;;15.60;5.63;;;;;;;19.92;70.58;101377.56;5056502;28;20209;-59
2023/10/06 06:02:02;;;;;;;11.00;4.93;;;;;;;19.75;70.39;101382.75;5049937;28;20449;-59
2023/10/06 06:04:27;;;;;;;6.73;3.50;;;;;;;19.47;69.90;101385.56;5058759;28;20970;-60
2023/10/06 06:07:02;;;;;;;6.73;4.00;;;;;;;19.34;69.08;101394.56;5060791;28;20448;-59
2023/10/06 06:09:28;;;;;;;6.93;3.83;;;;;;;19.30;68.62;101390.72;5054462;28;20223;-58
2023/10/06 06:11:53;;;;;;;7.00;3.97;;;;;;;19.27;68.31;101397.19;5065892;28;20785;-60
2023/10/06 06:14:21;;;;;;;7.97;3.83;;;;;;;19.25;68.37;101402.44;5060855;28;20279;-59
2023/10/06 06:16:47;;;;;;;5.63;3.73;;;;;;;19.22;68.11;101403.97;5061750;28;20210;-60
2023/10/06 06:19:13;;;;;;;8.10;3.80;;;;;;;19.23;67.66;101399.94;5068134;28;21101;-58
2023/10/06 06:21:38;;;;;;;7.87;3.37;;;;;;;19.27;66.76;101406.59;5060781;28;20444;-59
2023/10/06 06:24:08;;;;;;;6.53;3.73;;;;;;;19.25;67.16;101413.88;5067154;28;20865;-60
2023/10/06 06:26:36;;;;;;;6.30;3.23;;;;;;;19.25;67.11;101409.00;5052097;28;20204;-59
2023/10/06 06:29:03;;;;;;;8.63;3.27;;;;;;;19.24;66.96;101404.47;5060812;28;20476;-59
2023/10/06 06:31:34;;;;;;;5.90;2.70;;;;;;;19.20;66.07;101416.94;5057708;28;20426;-58
2023/10/06 06:34:04;;;;;;;17.60;6.50;;;;;;;19.16;67.60;101422.56;5051992;28;20458;-59
2023/10/06 06:36:33;;;;;;;8.27;4.10;;;;;;;19.22;65.73;101421.16;5056634;28;20865;-60
2023/10/06 06:38:58;;;;;;;9.00;3.67;;;;;;;19.24;65.97;101429.41;5049903;28;20973;-59
2023/10/06 06:41:27;;;;;;;7.73;3.80;;;;;;;19.24;65.61;101423.66;5047818;28;20433;-59
2023/10/06 06:43:58;;;;;;;7.20;3.97;;;;;;;19.24;65.66;101430.25;5061427;28;20650;-59
2023/10/06 06:46:24;;;;;;;7.17;3.17;;;;;;;19.25;65.64;101426.19;5052477;28;20481;-58
2023/10/06 06:48:51;;;;;;;6.90;3.27;;;;;;;19.26;65.37;101427.84;5047763;28;20422;-58
2023/10/06 06:51:18;;;;;;;6.30;3.27;;;;;;;19.27;64.89;101429.50;5057565;28;20437;-58
2023/10/06 06:53:43;;;;;;;9.17;3.20;;;;;;;19.36;65.31;101426.53;5051401;28;20970;-58
2023/10/06 06:56:10;;;;;;;8.40;3.83;;;;;;;19.41;65.81;101429.16;5062218;28;20429;-59
2023/10/06 06:58:37;;;;;;;7.90;3.80;;;;;;;19.51;66.26;101429.50;5057718;28;20223;-60
2023/10/06 07:01:05;;;;;;;9.17;5.30;;;;;;;19.66;65.24;101423.00;5048955;28;20461;-59
2023/10/06 07:03:31;;;;;;;7.70;4.90;;;;;;;19.56;64.81;101423.50;5048593;28;20905;-59
2023/10/06 07:05:56;;;;;;;12.90;4.93;;;;;;;19.49;64.63;101431.88;5056067;28;20467;-59
2023/10/06 07:08:23;;;;;;;11.07;4.83;;;;;;;19.46;64.64;101426.06;5063100;28;20245;-58
2023/10/06 07:10:52;;;;;;;10.03;4.83;;;;;;;19.41;64.77;101420.56;5068401;28;20191;-58
2023/10/06 07:13:22;;;;;;;11.93;4.60;;;;;;;19.32;65.33;101414.13;5063481;28;20453;-59
2023/10/06 07:15:49;;;;;;;10.40;4.17;;;;;;;19.27;64.67;101418.06;5051098;28;20510;-60
2023/10/06 07:18:14;;;;;;;10.07;4.30;;;;;;;19.24;65.06;101413.06;5057943;28;20469;-59
2023/10/06 07:20:40;;;;;;;10.07;3.97;;;;;;;19.19;65.42;101416.13;5067603;28;20432;-60
2023/10/06 07:23:05;;;;;;;8.40;4.00;;;;;;;19.20;64.85;101416.94;5049868;28;20202;-58
2023/10/06 07:25:31;;;;;;;6.67;3.87;;;;;;;19.15;65.30;101414.31;5048795;28;20202;-59
2023/10/06 07:27:57;;;;;;;8.40;4.20;;;;;;;19.05;64.45;101412.78;5049117;28;20215;-58
2023/10/06 07:30:25;;;;;;;12.13;5.87;;;;;;;19.09;64.41;101419.47;5054884;28;20183;-58
2023/10/06 07:32:51;;;;;;;9.30;5.23;;;;;;;19.08;64.17;101432.13;5067867;28;20443;-58
2023/10/06 07:35:20;;;;;;;9.17;4.97;;;;;;;19.08;64.04;101440.72;5057859;28;21039;-60
2023/10/06 07:37:47;;;;;;;13.83;5.60;;;;;;;19.07;63.63;101436.16;5068411;28;20204;-59
2023/10/06 07:40:14;;;;;;;17.17;7.40;;;;;;;19.07;63.57;101430.44;5063739;28;20464;-60
2023/10/06 07:42:43;;;;;;;17.00;7.20;;;;;;;19.06;63.82;101434.50;5049626;28;20520;-59
2023/10/06 07:45:09;;;;;;;11.87;6.20;;;;;;;19.00;64.66;101437.94;5047007;28;20470;-58
2023/10/06 07:47:36;;;;;;;20.40;7.50;;;;;;;18.92;65.30;101433.19;5062253;28;20959;-58
2023/10/06 07:50:05;;;;;;;17.70;6.73;;;;;;;18.93;64.62;101435.69;5064247;28;20429;-58
2023/10/06 07:52:33;;;;;;;18.47;5.97;;;;;;;18.97;64.39;101441.53;5049716;28;20557;-58
2023/10/06 07:55:06;;;;;;;16.83;5.97;;;;;;;18.98;63.74;101444.03;5055375;28;20496;-59
2023/10/06 07:57:33;;;;;;;11.57;5.50;;;;;;;19.02;63.57;101432.72;5065001;28;20548;-58
2023/10/06 08:00:07;;;;;;;14.60;5.73;;;;;;;19.00;63.60;101435.06;5048572;28;20441;-58
2023/10/06 08:02:39;;;;;;;11.97;5.20;;;;;;;19.01;63.54;101437.59;5060305;28;20962;-58
2023/10/06 08:05:12;;;;;;;15.63;6.37;;;;;;;19.01;63.79;101439.63;5068173;28;20564;-57
2023/10/06 08:07:44;;;;;;;8.90;4.53;;;;;;;19.01;63.91;101431.03;5048418;28;20529;-58
2023/10/06 08:10:16;;;;;;;16.20;5.57;;;;;;;19.01;64.08;101426.13;5051661;28;20430;-58
2023/10/06 08:12:46;;;;;;;11.47;5.57;;;;;;;19.00;64.20;101424.47;5050505;28;21335;-57
2023/10/06 08:15:16;;;;;;;10.03;4.70;;;;;;;19.00;64.48;101424.47;5049141;28;20801;-58
2023/10/06 08:17:42;;;;;;;9.53;5.63;;;;;;;19.00;64.42;101415.88;5048465;28;20475;-57
2023/10/06 08:20:12;;;;;;;11.97;4.97;;;;;;;19.00;64.48;101417.91;5060702;28;20476;-58
2023/10/06 08:22:38;;;;;;;12.03;5.40;;;;;;;18.98;64.74;101421.16;5060915;28;20523;-59
2023/10/06 08:25:05;;;;;;;10.20;5.10;;;;;;;18.99;64.61;101422.81;5046812;28;21322;-58
2023/10/06 08:27:34;;;;;;;12.07;5.70;;;;;;;18.98;64.71;101421.16;5061093;28;20830;-58
2023/10/06 08:29:59;;;;;;;12.40;5.13;;;;;;;18.98;64.86;101421.16;5063077;28;20438;-58
2023/10/06 08:32:24;;;;;;;8.33;4.43;;;;;;;19.00;64.93;101417.91;5060992;28;20437;-58
2023/10/06 08:34:51;;;;;;;9.03;4.70;;;;;;;18.97;65.04;101421.50;5065746;28;20186;-59
2023/10/06 08:37:16;;;;;;;10.70;4.87;;;;;;;18.98;64.98;101426.03;5049097;28;20548;-58
2023/10/06 08:39:44;;;;;;;8.23;4.07;;;;;;;18.98;65.38;101426.03;5046087;28;20430;-59
2023/10/06 08:42:15;;;;;;;13.77;4.07;;;;;;;18.97;65.25;101433.75;5052599;28;20520;-58
2023/10/06 08:44:41;;;;;;;11.00;5.00;;;;;;;18.97;65.08;101439.47;5062424;28;20438;-59
2023/10/06 08:47:12;;;;;;;14.20;5.60;;;;;;;18.96;65.52;101428.41;5048830;28;20433;-58
2023/10/06 08:49:48;;;;;;;9.73;5.17;;;;;;;18.96;65.38;101434.16;5046998;28;20465;-58
2023/10/06 08:52:13;;;;;;;9.47;4.30;;;;;;;18.95;65.61;101439.03;5049388;28;20453;-59
2023/10/06 08:54:39;;;;;;;9.57;4.60;;;;;;;18.96;65.44;101437.81;5044318;28;20437;-58
2023/10/06 08:57:04;;;;;;;8.50;4.30;;;;;;;18.95;65.62;101427.56;5056467;28;20187;-57
2023/10/06 08:59:33;;;;;;;8.47;4.77;;;;;;;18.95;65.49;101427.56;5060002;28;20449;-58
2023/10/06 09:02:02;;;;;;;10.60;4.70;;;;;;;18.95;65.79;101424.72;5051294;28;20271;-59
2023/10/06 09:04:33;;;;;;;9.50;4.13;;;;;;;18.93;65.80;101429.97;5062017;28;20429;-58
2023/10/06 09:07:06;;;;;;;8.10;4.17;;;;;;;18.94;65.80;101425.91;5047694;28;20447;-59
2023/10/06 09:09:32;;;;;;;9.73;4.37;;;;;;;18.95;65.77;101432.44;5065071;28;20524;-59
2023/10/06 09:11:58;;;;;;;9.10;4.27;;;;;;;18.94;65.86;101431.63;5052956;28;20549;-58
2023/10/06 09:14:25;;;;;;;11.80;4.90;;;;;;;18.94;65.87;101433.66;5046731;28;20544;-58
2023/10/06 09:16:50;;;;;;;9.80;5.13;;;;;;;18.93;66.05;101411.94;5046328;28;20186;-59
2023/10/06 09:19:17;;;;;;;9.50;4.50;;;;;;;18.93;66.07;101415.66;5049894;28;20485;-58
2023/10/06 09:22:05;;;;;;;10.13;4.37;;;;;;;18.93;66.18;101415.66;5052200;28;20183;-58
2023/10/06 09:24:30;;;;;;;8.17;4.03;;;;;;;18.94;66.07;101419.34;5047401;28;20846;-58
2023/10/06 09:26:56;;;;;;;8.80;5.20;;;;;;;18.93;66.10;101427.09;5050623;28;20441;-58
2023/10/06 09:29:32;;;;;;;8.60;4.37;;;;;;;18.91;66.57;101409.44;5046333;28;20226;-58
2023/10/06 09:31:58;;;;;;;7.57;3.80;;;;;;;18.91;66.15;101412.31;5044527;28;20221;-58
2023/10/06 09:34:24;;;;;;;8.70;4.97;;;;;;;18.92;66.45;101413.97;5054177;28;20461;-57
2023/10/06 09:36:51;;;;;;;6.73;3.77;;;;;;;18.91;66.49;101403.72;5052964;28;20665;-58
2023/10/06 09:39:32;;;;;;;8.00;4.53;;;;;;;18.90;66.51;101407.78;5053878;28;20471;-58
2023/10/06 09:41:59;;;;;;;9.03;4.40;;;;;;;18.91;66.50;101412.31;5049457;28;20479;-58
2023/10/06 09:44:24;;;;;;;8.50;4.23;;;;;;;18.91;66.62;101409.44;5066958;28;20894;-57
2023/10/06 09:46:52;;;;;;;8.80;4.10;;;;;;;18.90;66.63;101399.19;5053132;28;20465;-58
2023/10/06 09:49:18;;;;;;;9.00;4.40;;;;;;;18.90;66.48;101396.34;5068960;28;20163;-57
2023/10/06 09:51:43;;;;;;;8.40;3.83;;;;;;;18.90;66.63;101396.34;5063225;28;20474;-59
2023/10/06 09:54:09;;;;;;;7.07;3.47;;;;;;;18.90;66.56;101393.47;5053902;28;20449;-58
2023/10/06 09:56:34;;;;;;;10.10;4.77;;;;;;;18.90;66.68;101389.75;5052427;28;20183;-58
2023/10/06 09:59:00;;;;;;;7.97;4.03;;;;;;;18.88;66.76;101395.88;5049133;28;20184;-58
2023/10/06 10:01:25;;;;;;;9.30;4.53;;;;;;;18.90;66.85;101387.75;5048172;28;20183;-58
2023/10/06 10:03:57;;;;;;;9.40;4.07;;;;;;;18.89;66.79;101382.38;5052712;28;20196;-58
2023/10/06 10:06:22;;;;;;;7.20;3.50;;;;;;;18.88;66.82;101378.69;5048870;28;20207;-59
2023/10/06 10:08:48;;;;;;;6.30;3.40;;;;;;;18.87;66.85;101382.72;5061685;28;20441;-57
2023/10/06 10:11:17;;;;;;;6.63;4.30;;;;;;;18.87;66.94;101382.72;5059184;28;20549;-58
2023/10/06 10:14:06;;;;;;;11.63;4.10;;;;;;;18.88;67.11;101381.56;5050938;28;20215;-57
2023/10/06 10:16:34;;;;;;;7.07;4.20;;;;;;;18.90;66.75;101384.03;5049085;28;20406;-58
2023/10/06 10:19:13;;;;;;;5.83;3.80;;;;;;;18.88;66.78;101375.84;5049329;28;20473;-58
2023/10/06 10:21:41;;;;;;;7.40;3.90;;;;;;;18.90;67.07;101384.88;5051516;28;20424;-57
2023/10/06 10:24:09;;;;;;;8.60;4.37;;;;;;;18.90;66.88;101373.44;5066990;28;20447;-58
2023/10/06 10:26:36;;;;;;;5.67;3.50;;;;;;;18.90;66.69;101366.88;5066479;28;20453;-58
2023/10/06 10:29:13;;;;;;;7.87;4.50;;;;;;;18.91;67.24;101365.69;5064271;28;20533;-58
2023/10/06 10:31:46;;;;;;;7.83;4.20;;;;;;;18.89;66.98;101365.22;5069223;28;20884;-58
2023/10/06 10:34:21;;;;;;;8.03;4.17;;;;;;;18.90;66.90;101355.44;5052502;28;20461;-57
2023/10/06 10:36:48;;;;;;;8.80;3.93;;;;;;;18.90;67.01;101350.56;5048717;28;20432;-58
2023/10/06 10:39:16;;;;;;;8.33;3.70;;;;;;;18.89;66.92;101345.19;5062316;28;20441;-58
2023/10/06 10:41:42;;;;;;;8.90;4.40;;;;;;;18.88;66.93;101343.50;5050585;28;20434;-58
2023/10/06 10:44:18;;;;;;;6.80;3.30;;;;;;;18.90;67.03;101350.56;5053612;28;20460;-58
2023/10/06 10:46:48;;;;;;;7.57;3.80;;;;;;;18.91;67.32;101345.66;5058514;28;20207;-58
2023/10/06 10:49:16;;;;;;;6.53;3.43;;;;;;;18.91;67.00;101349.34;5052534;28;20442;-58
2023/10/06 10:52:05;;;;;;;7.50;3.57;;;;;;;18.91;67.11;101357.94;5033781;28;20437;-56
2023/10/06 10:54:33;;;;;;;7.17;3.80;;;;;;;18.92;67.06;101353.06;5053958;28;20433;-58
2023/10/06 10:57:11;;;;;;;6.47;3.57;;;;;;;18.90;67.03;101341.97;5053992;28;20452;-59
2023/10/06 11:02:57;;;;;;;7.80;3.97;;;;;;;18.91;67.13;101337.09;5057797;28;20465;-58
2023/10/06 11:05:23;;;;;;;7.33;4.03;;;;;;;18.90;67.20;101335.41;5047521;28;21068;-58
2023/10/06 11:07:58;;;;;;;6.07;3.27;;;;;;;18.92;66.92;101330.97;5052334;28;20438;-58
2023/10/06 11:10:24;;;;;;;9.17;3.57;;;;;;;18.92;66.96;101333.03;5067166;28;20179;-57
2023/10/06 11:12:50;;;;;;;7.50;3.60;;;;;;;18.91;67.18;101329.31;5056267;28;20441;-57
2023/10/06 11:15:28;;;;;;;6.80;3.70;;;;;;;18.90;67.24;101324.78;5051884;28;20642;-58
2023/10/06 11:17:59;;;;;;;7.33;4.03;;;;;;;18.90;67.31;101321.94;5047805;28;21030;-58
2023/10/06 11:20:27;;;;;;;7.67;4.03;;;;;;;18.92;67.14;101321.59;5057596;28;20583;-58
2023/10/06 11:22:59;;;;;;;7.73;3.90;;;;;;;18.91;67.31;101323.59;5067948;28;20421;-58
2023/10/06 11:25:28;;;;;;;7.50;3.63;;;;;;;18.92;67.21;101318.72;5048716;28;20477;-58
2023/10/06 11:28:04;;;;;;;6.80;3.60;;;;;;;18.93;67.10;101317.53;5049837;28;20431;-57
2023/10/06 11:30:35;;;;;;;5.97;3.27;;;;;;;18.92;67.22;101318.72;5047955;28;20422;-57
2023/10/06 11:33:02;;;;;;;7.57;3.50;;;;;;;18.94;67.06;101319.19;5055229;28;20541;-57
2023/10/06 11:35:29;;;;;;;6.83;3.73;;;;;;;18.92;67.28;101315.84;5047823;28;20488;-59
2023/10/06 11:37:55;;;;;;;9.00;3.80;;;;;;;18.95;67.42;101317.97;5047352;28;20464;-58